createdAt,value
2022-12-18T00:00:48.346Z,91.81
2022-12-18T00:04:27.400Z,92.12
2022-12-18T00:07:30.879Z,92.07
2022-12-18T00:10:33.395Z,91.40
2022-12-18T00:13:37.158Z,91.72
2022-12-18T00:16:40.798Z,92.23
2022-12-18T00:19:43.921Z,92.44
2022-12-18T00:22:47.073Z,92.61
2022-12-18T00:25:50.104Z,91.95
2022-12-18T00:28:53.922Z,91.50
2022-12-18T00:31:57.021Z,91.69
2022-12-18T00:34:59.712Z,91.52
2022-12-18T00:38:03.184Z,91.33
2022-12-18T00:41:06.300Z,90.67
2022-12-18T00:44:14.422Z,90.19
2022-12-18T00:47:17.021Z,90.30
2022-12-18T00:50:20.602Z,90.32
2022-12-18T00:53:23.276Z,90.41
2022-12-18T00:56:26.417Z,90.61
2022-12-18T00:59:29.224Z,90.65
2022-12-18T01:02:32.681Z,90.79
2022-12-18T01:05:41.318Z,90.73
2022-12-18T01:08:45.158Z,90.56
2022-12-18T01:11:48.922Z,91.03
2022-12-18T01:14:51.869Z,90.11
2022-12-18T01:17:54.901Z,89.64
2022-12-18T01:20:58.444Z,90.07
2022-12-18T01:24:01.068Z,90.26
2022-12-18T01:27:04.423Z,90.22
2022-12-18T01:30:07.422Z,90.19
2022-12-18T01:33:10.542Z,89.44
2022-12-18T01:36:22.192Z,90.10
2022-12-18T01:39:25.220Z,89.66
2022-12-18T01:42:27.909Z,89.67
2022-12-18T01:45:32.413Z,89.46
2022-12-18T01:48:35.091Z,89.53
2022-12-18T01:51:37.972Z,89.56
2022-12-18T01:54:40.883Z,89.67
2022-12-18T01:57:44.315Z,90.85
2022-12-18T02:00:47.063Z,90.75
2022-12-18T02:03:50.131Z,90.61
2022-12-18T02:07:10.630Z,90.93
2022-12-18T02:10:26.014Z,90.92
2022-12-18T02:13:34.645Z,91.22
2022-12-18T02:16:40.991Z,90.13
2022-12-18T02:20:07.149Z,90.54
2022-12-18T02:23:46.121Z,89.81
2022-12-18T02:26:51.648Z,89.90
2022-12-18T02:29:59.659Z,89.45
2022-12-18T02:33:06.778Z,89.57
2022-12-18T02:36:11.260Z,88.74
2022-12-18T02:39:16.200Z,88.99
2022-12-18T02:42:31.215Z,89.41
2022-12-18T02:45:35.093Z,89.51
2022-12-18T02:48:39.128Z,88.84
2022-12-18T02:51:55.321Z,88.64
2022-12-18T02:55:06.196Z,88.77
2022-12-18T02:58:22.822Z,88.37
2022-12-18T03:01:35.217Z,88.60
2022-12-18T03:05:03.047Z,87.94
2022-12-18T03:08:16.954Z,89.21
2022-12-18T03:11:41.502Z,89.09
2022-12-18T03:14:46.697Z,89.06
2022-12-18T03:17:56.879Z,89.17
2022-12-18T03:21:08.007Z,88.27
2022-12-18T03:24:16.153Z,88.69
2022-12-18T03:27:22.320Z,88.67
2022-12-18T03:30:28.513Z,88.16
2022-12-18T03:33:38.247Z,88.25
2022-12-18T03:36:41.148Z,88.12
2022-12-18T03:39:44.590Z,87.97
2022-12-18T03:42:51.565Z,87.99
2022-12-18T03:46:04.459Z,87.41
2022-12-18T03:49:13.322Z,86.90
2022-12-18T03:52:24.314Z,86.48
2022-12-18T03:55:29.773Z,86.93
2022-12-18T03:58:39.083Z,87.30
2022-12-18T04:02:08.991Z,86.89
2022-12-18T04:05:15.270Z,87.20
2022-12-18T04:08:20.219Z,86.91
2022-12-18T04:11:31.348Z,86.60
2022-12-18T04:14:36.817Z,86.26
2022-12-18T04:17:52.819Z,86.31
2022-12-18T04:20:59.385Z,86.01
2022-12-18T04:24:03.275Z,85.80
2022-12-18T04:27:06.544Z,85.82
2022-12-18T04:30:16.266Z,85.86
2022-12-18T04:33:19.009Z,85.34
2022-12-18T04:36:22.735Z,86.98
2022-12-18T04:39:25.715Z,87.90
2022-12-18T04:42:32.536Z,87.42
2022-12-18T04:45:35.144Z,87.39
2022-12-18T04:48:38.389Z,86.71
2022-12-18T04:51:41.011Z,86.06
2022-12-18T04:54:43.977Z,86.31
2022-12-18T04:57:46.534Z,85.48
2022-12-18T05:00:49.770Z,84.76
2022-12-18T05:03:53.141Z,85.06
2022-12-18T05:06:56.050Z,85.97
2022-12-18T05:09:58.623Z,85.60
2022-12-18T05:13:01.657Z,84.94
2022-12-18T05:16:04.474Z,85.56
2022-12-18T05:19:07.490Z,84.24
2022-12-18T05:22:10.488Z,86.55
2022-12-18T05:25:13.414Z,87.28
2022-12-18T05:28:16.036Z,87.62
2022-12-18T05:31:19.080Z,88.27
2022-12-18T05:34:21.537Z,87.54
2022-12-18T05:37:24.489Z,89.51
2022-12-18T05:40:27.033Z,91.84
2022-12-18T05:43:31.239Z,91.90
2022-12-18T05:46:33.875Z,92.59
2022-12-18T05:49:37.133Z,92.90
2022-12-18T05:52:39.698Z,93.27
2022-12-18T05:55:44.093Z,94.28
2022-12-18T05:58:46.871Z,94.72
2022-12-18T06:01:50.282Z,94.91
2022-12-18T06:04:53.011Z,95.04
2022-12-18T06:07:56.417Z,94.46
2022-12-18T06:10:59.133Z,93.86
2022-12-18T06:14:02.780Z,93.43
2022-12-18T06:17:05.495Z,93.33
2022-12-18T06:20:08.706Z,93.08
2022-12-18T06:23:11.261Z,92.61
2022-12-18T06:26:15.102Z,92.44
2022-12-18T06:29:17.801Z,92.74
2022-12-18T06:32:20.847Z,92.24
2022-12-18T06:35:23.550Z,92.13
2022-12-18T06:38:26.535Z,93.14
2022-12-18T06:41:29.280Z,93.87
2022-12-18T06:44:32.215Z,94.83
2022-12-18T06:47:34.966Z,95.13
2022-12-18T06:50:38.030Z,95.70
2022-12-18T06:53:42.771Z,95.76
2022-12-18T06:56:49.077Z,95.22
2022-12-18T06:59:51.901Z,95.94
2022-12-18T07:02:54.925Z,96.02
2022-12-18T07:05:57.670Z,96.83
2022-12-18T07:09:00.880Z,96.33
2022-12-18T07:12:03.503Z,96.27
2022-12-18T07:15:09.531Z,96.16
2022-12-18T07:18:12.115Z,96.38
2022-12-18T07:21:17.901Z,95.61
2022-12-18T07:24:20.520Z,95.00
2022-12-18T07:27:24.279Z,95.74
2022-12-18T07:30:27.119Z,95.54
2022-12-18T07:33:30.240Z,96.19
2022-12-18T07:36:33.269Z,97.26
2022-12-18T07:39:36.289Z,97.62
2022-12-18T07:42:38.895Z,98.17
2022-12-18T07:45:42.035Z,98.53
2022-12-18T07:48:49.364Z,98.07
2022-12-18T07:51:56.092Z,97.41
2022-12-18T07:54:58.761Z,97.12
2022-12-18T07:58:03.698Z,96.66
2022-12-18T08:01:15.594Z,95.81
2022-12-18T08:04:18.733Z,95.57
2022-12-18T08:07:21.280Z,94.70
2022-12-18T08:10:24.529Z,94.09
2022-12-18T08:13:27.844Z,94.09
2022-12-18T08:16:31.807Z,94.25
2022-12-18T08:19:34.689Z,93.85
2022-12-18T08:22:40.730Z,93.33
2022-12-18T08:25:43.544Z,92.33
2022-12-18T08:28:47.165Z,92.50
2022-12-18T08:31:51.376Z,91.93
2022-12-18T08:34:54.469Z,91.98
2022-12-18T08:37:57.257Z,92.62
2022-12-18T08:41:01.533Z,92.56
2022-12-18T08:44:27.067Z,92.51
2022-12-18T08:47:33.633Z,92.25
2022-12-18T08:50:36.300Z,91.20
2022-12-18T08:53:40.907Z,92.21
2022-12-18T08:56:43.912Z,93.21
2022-12-18T08:59:47.316Z,94.07
2022-12-18T09:02:50.122Z,94.10
2022-12-18T09:05:53.623Z,94.46
2022-12-18T09:08:56.306Z,94.71
2022-12-18T09:11:59.380Z,94.75
2022-12-18T09:15:02.189Z,93.95
2022-12-18T09:18:05.184Z,94.25
2022-12-18T09:21:12.680Z,94.58
2022-12-18T09:24:16.199Z,94.60
2022-12-18T09:27:18.686Z,94.52
2022-12-18T09:30:21.726Z,94.29
2022-12-18T09:33:24.365Z,94.08
2022-12-18T09:36:28.384Z,94.87
2022-12-18T09:39:31.754Z,94.33
2022-12-18T09:42:34.883Z,94.59
2022-12-18T09:45:45.584Z,94.09
2022-12-18T09:48:51.990Z,94.35
2022-12-18T09:51:59.491Z,93.67
2022-12-18T09:55:12.143Z,93.50
2022-12-18T09:58:33.509Z,93.23
2022-12-18T10:01:43.945Z,93.05
2022-12-18T10:04:54.933Z,94.00
2022-12-18T10:08:08.883Z,93.30
2022-12-18T10:11:42.436Z,92.93
2022-12-18T10:14:47.977Z,92.92
2022-12-18T10:17:53.540Z,93.13
2022-12-18T10:21:03.759Z,92.08
2022-12-18T10:24:20.369Z,92.33
2022-12-18T10:27:27.031Z,92.03
2022-12-18T10:30:29.798Z,92.03
2022-12-18T10:33:35.826Z,91.50
2022-12-18T10:36:39.023Z,90.90
2022-12-18T10:39:42.390Z,90.26
2022-12-18T10:42:45.403Z,90.39
2022-12-18T10:46:07.399Z,89.76
2022-12-18T10:49:25.670Z,89.50
2022-12-18T10:52:31.671Z,90.18
2022-12-18T10:55:38.678Z,89.50
2022-12-18T10:58:43.379Z,89.22
2022-12-18T11:01:59.724Z,88.48
2022-12-18T11:05:03.366Z,88.88
2022-12-18T11:08:05.963Z,88.54
2022-12-18T11:11:26.400Z,87.98
2022-12-18T11:14:31.311Z,87.74
2022-12-18T11:17:36.990Z,87.35
2022-12-18T11:20:40.646Z,86.52
2022-12-18T11:23:54.378Z,86.72
2022-12-18T11:26:59.955Z,86.95
2022-12-18T11:30:36.890Z,86.86
2022-12-18T11:33:58.432Z,86.43
2022-12-18T11:37:05.806Z,86.80
2022-12-18T11:40:15.115Z,86.41
2022-12-18T11:43:50.542Z,85.78
2022-12-18T11:47:05.439Z,84.47
2022-12-18T11:50:17.629Z,85.54
2022-12-18T11:53:21.249Z,84.70
2022-12-18T11:56:34.025Z,84.73
2022-12-18T11:59:46.803Z,85.47
2022-12-18T12:03:17.740Z,84.13
2022-12-18T12:06:34.268Z,83.63
2022-12-18T12:10:08.757Z,82.87
2022-12-18T12:13:45.991Z,83.48
2022-12-18T12:16:58.129Z,83.69
2022-12-18T12:20:12.261Z,83.42
2022-12-18T12:23:28.174Z,83.97
2022-12-18T12:26:40.047Z,83.49
2022-12-18T12:29:45.893Z,83.67
2022-12-18T12:32:56.486Z,85.11
2022-12-18T12:36:19.781Z,84.50
2022-12-18T12:39:26.027Z,85.84
2022-12-18T12:43:08.020Z,85.91
2022-12-18T12:46:12.876Z,84.90
2022-12-18T12:49:20.090Z,84.82
2022-12-18T12:52:45.639Z,84.62
2022-12-18T12:55:49.471Z,85.84
2022-12-18T12:59:14.538Z,86.77
2022-12-18T13:02:30.901Z,86.35
2022-12-18T13:05:47.712Z,87.43
2022-12-18T13:09:01.944Z,87.62
2022-12-18T13:12:25.302Z,87.44
2022-12-18T13:15:39.846Z,87.21
2022-12-18T13:18:50.733Z,87.17
2022-12-18T13:21:56.278Z,87.79
2022-12-18T13:24:59.308Z,88.55
2022-12-18T13:28:14.348Z,88.21
2022-12-18T13:31:42.428Z,87.59
2022-12-18T13:34:46.449Z,87.57
2022-12-18T13:37:56.518Z,87.58
2022-12-18T13:41:24.259Z,87.66
2022-12-18T13:44:40.012Z,87.82
2022-12-18T13:47:45.130Z,88.64
2022-12-18T13:51:14.905Z,88.85
2022-12-18T13:54:21.586Z,89.45
2022-12-18T13:57:35.919Z,89.67
2022-12-18T14:00:44.170Z,88.94
2022-12-18T14:03:48.703Z,89.25
2022-12-18T14:06:56.973Z,89.54
2022-12-18T14:10:18.667Z,89.99
2022-12-18T14:13:30.314Z,90.49
2022-12-18T14:16:33.438Z,89.88
2022-12-18T14:19:37.405Z,89.86
2022-12-18T14:22:45.302Z,89.43
2022-12-18T14:25:48.442Z,89.88
2022-12-18T14:28:51.782Z,90.11
2022-12-18T14:32:20.887Z,90.09
2022-12-18T14:35:23.593Z,90.21
2022-12-18T14:38:32.209Z,90.67
2022-12-18T14:41:37.468Z,91.87
2022-12-18T14:45:05.213Z,91.05
2022-12-18T14:48:09.640Z,92.10
2022-12-18T14:51:14.535Z,92.83
2022-12-18T14:54:19.584Z,92.77
2022-12-18T14:57:25.884Z,92.63
2022-12-18T15:00:29.118Z,92.50
2022-12-18T15:03:35.216Z,92.30
2022-12-18T15:06:41.957Z,92.64
2022-12-18T15:10:07.640Z,93.21
2022-12-18T15:13:22.900Z,93.58
2022-12-18T15:16:28.358Z,94.18
2022-12-18T15:19:39.998Z,94.20
2022-12-18T15:22:45.892Z,94.44
2022-12-18T15:25:53.485Z,94.58
2022-12-18T15:29:05.020Z,95.50
2022-12-18T15:32:21.841Z,97.10
2022-12-18T15:35:28.670Z,97.08
2022-12-18T15:38:33.890Z,97.51
2022-12-18T15:41:41.133Z,98.09
2022-12-18T15:44:45.711Z,97.99
2022-12-18T15:47:55.595Z,97.24
2022-12-18T15:51:01.249Z,96.38
2022-12-18T15:54:10.969Z,96.76
2022-12-18T15:57:29.510Z,95.89
2022-12-18T16:00:39.320Z,95.11
2022-12-18T16:03:45.087Z,95.60
2022-12-18T16:10:18.801Z,96.21
2022-12-18T16:13:26.145Z,96.11
2022-12-18T16:16:32.165Z,95.76
2022-12-18T16:19:37.197Z,95.55
2022-12-18T16:22:46.243Z,96.77
2022-12-18T16:25:50.854Z,97.26
2022-12-18T16:28:55.806Z,97.63
2022-12-18T16:32:03.768Z,97.93
2022-12-18T16:35:08.588Z,97.62
2022-12-18T16:38:14.472Z,97.24
2022-12-18T16:41:33.063Z,97.43
2022-12-18T16:44:37.578Z,97.30
2022-12-18T16:47:42.091Z,97.40
2022-12-18T16:50:46.498Z,96.87
2022-12-18T16:53:49.963Z,97.10
2022-12-18T16:56:54.997Z,97.05
2022-12-18T17:00:04.769Z,97.38
2022-12-18T17:03:12.534Z,97.58
2022-12-18T17:06:16.576Z,98.53
2022-12-18T17:09:26.091Z,98.62
2022-12-18T17:12:31.266Z,98.25
2022-12-18T17:15:45.536Z,98.79
2022-12-18T17:18:49.835Z,98.77
2022-12-18T17:21:57.334Z,98.67
2022-12-18T17:25:02.732Z,98.21
2022-12-18T17:28:08.528Z,98.55
2022-12-18T17:31:20.985Z,98.24
2022-12-18T17:34:26.033Z,97.90
2022-12-18T17:37:32.130Z,97.68
2022-12-18T17:40:36.708Z,98.23
2022-12-18T17:43:46.415Z,97.91
2022-12-18T17:46:54.355Z,98.41
2022-12-18T17:49:59.208Z,98.09
2022-12-18T17:53:04.688Z,98.12
2022-12-18T17:56:11.486Z,98.33
2022-12-18T17:59:16.946Z,98.48
2022-12-18T18:02:22.847Z,97.40
2022-12-18T18:05:31.588Z,98.31
2022-12-18T18:08:37.370Z,98.29
2022-12-18T18:12:00.227Z,98.40
2022-12-18T18:15:08.805Z,98.15
2022-12-18T18:18:13.496Z,98.05
2022-12-18T18:21:19.299Z,97.74
2022-12-18T18:24:25.831Z,97.90
2022-12-18T18:27:38.419Z,98.06
2022-12-18T18:30:44.558Z,98.40
2022-12-18T18:33:48.469Z,98.54
2022-12-18T18:36:53.581Z,98.38
2022-12-18T18:39:58.836Z,97.88
2022-12-18T18:43:03.547Z,97.55
2022-12-18T18:46:11.134Z,97.84
2022-12-18T18:49:16.644Z,97.20
2022-12-18T18:52:21.396Z,98.08
2022-12-18T18:55:27.151Z,97.22
2022-12-18T18:58:32.436Z,96.53
2022-12-18T19:01:36.683Z,95.98
2022-12-18T19:04:46.188Z,96.41
2022-12-18T19:07:52.039Z,96.79
2022-12-18T19:10:58.019Z,97.43
2022-12-18T19:14:03.961Z,98.01
2022-12-18T19:17:09.848Z,98.16
2022-12-18T19:20:15.824Z,97.08
2022-12-18T19:23:19.820Z,97.56
2022-12-18T19:26:28.087Z,97.82
2022-12-18T19:29:32.550Z,97.33
2022-12-18T19:32:39.748Z,97.61
2022-12-18T19:35:43.645Z,97.65
2022-12-18T19:38:49.323Z,97.27
2022-12-18T19:41:53.733Z,97.51
2022-12-18T19:44:59.262Z,97.43
2022-12-18T19:48:04.616Z,96.96
2022-12-18T19:51:17.121Z,96.67
2022-12-18T19:54:21.129Z,96.37
2022-12-18T19:57:26.315Z,97.08
2022-12-18T20:00:30.121Z,97.38
2022-12-18T20:03:36.426Z,97.68
2022-12-18T20:06:51.289Z,97.92
2022-12-18T20:10:01.352Z,97.16
2022-12-18T20:13:11.822Z,96.93
2022-12-18T20:16:19.349Z,97.71
2022-12-18T20:19:23.817Z,98.25
2022-12-18T20:22:28.971Z,98.57
2022-12-18T20:25:35.988Z,97.91
2022-12-18T20:28:44.740Z,98.51
2022-12-18T20:31:48.830Z,97.62
2022-12-18T20:34:54.247Z,97.66
2022-12-18T20:37:57.614Z,97.39
2022-12-18T20:41:05.989Z,97.39
2022-12-18T20:44:22.683Z,97.89
2022-12-18T20:47:30.767Z,97.81
2022-12-18T20:50:36.044Z,97.71
2022-12-18T20:53:40.980Z,98.10
2022-12-18T20:56:49.304Z,97.93
2022-12-18T20:59:54.606Z,98.64
2022-12-18T21:02:58.019Z,98.53
2022-12-18T21:06:02.211Z,98.24
2022-12-18T21:09:07.316Z,99.20
2022-12-18T21:12:40.359Z,99.31
2022-12-18T21:15:49.230Z,98.91
2022-12-18T21:18:54.538Z,98.47
2022-12-18T21:21:58.869Z,98.58
2022-12-18T21:25:02.261Z,99.14
2022-12-18T21:28:05.323Z,99.30
2022-12-18T21:31:08.943Z,99.00
2022-12-18T21:34:24.086Z,98.94
2022-12-18T21:37:27.747Z,98.75
2022-12-18T21:40:30.275Z,98.38
2022-12-18T21:43:59.464Z,98.55
2022-12-18T21:47:13.413Z,98.47
2022-12-18T21:50:26.040Z,98.61
2022-12-18T21:53:28.748Z,98.23
2022-12-18T21:56:52.450Z,98.58
2022-12-18T21:59:55.186Z,98.46
2022-12-18T22:03:17.867Z,98.90
2022-12-18T22:06:21.020Z,99.05
2022-12-18T22:09:25.340Z,98.83
2022-12-18T22:12:43.349Z,98.88
2022-12-18T22:15:48.229Z,99.12
2022-12-18T22:18:51.093Z,99.31
2022-12-18T22:21:54.810Z,99.34
2022-12-18T22:24:57.495Z,99.42
2022-12-18T22:28:19.039Z,99.51
2022-12-18T22:31:21.593Z,99.03
2022-12-18T22:34:24.766Z,99.18
2022-12-18T22:37:27.558Z,98.99
2022-12-18T22:40:30.756Z,98.75
2022-12-18T22:43:33.893Z,98.42
2022-12-18T22:46:43.490Z,97.97
2022-12-18T22:49:46.161Z,98.97
2022-12-18T22:52:49.489Z,98.36
2022-12-18T22:55:52.164Z,97.83
2022-12-18T22:58:55.795Z,97.27
2022-12-18T23:01:59.802Z,97.19
2022-12-18T23:05:02.867Z,97.29
2022-12-18T23:08:05.634Z,97.49
2022-12-18T23:11:08.946Z,97.63
2022-12-18T23:14:12.230Z,97.71
2022-12-18T23:17:15.021Z,97.72
2022-12-18T23:20:17.663Z,97.38
2022-12-18T23:23:20.669Z,97.33
2022-12-18T23:26:24.839Z,96.66
2022-12-18T23:29:28.195Z,96.93
2022-12-18T23:32:30.800Z,96.25
2022-12-18T23:35:35.899Z,95.71
2022-12-18T23:38:38.693Z,95.60
2022-12-18T23:41:41.615Z,95.87
2022-12-18T23:44:44.353Z,95.15
2022-12-18T23:47:51.102Z,94.74
2022-12-18T23:50:54.058Z,94.82
2022-12-18T23:53:59.943Z,94.77
2022-12-18T23:57:02.584Z,94.63
